sensor_id;sensor_type;location;lat;lon;timestamp;P1;durP1;ratioP1;P2;durP2;ratioP2
75935;SDS011;64614;32.062;34.834;2023-11-19T00:04:28;5.88;;;3.13;;
75935;SDS011;64614;32.062;34.834;2023-11-19T00:06:55;5.38;;;2.70;;
75935;SDS011;64614;32.062;34.834;2023-11-19T00:09:27;7.63;;;3.30;;
75935;SDS011;64614;32.062;34.834;2023-11-19T00:22:49;6.43;;;3.15;;
75935;SDS011;64614;32.062;34.834;2023-11-19T00:57:55;7.00;;;3.08;;
75935;SDS011;64614;32.062;34.834;2023-11-19T01:58:36;5.50;;;3.20;;
75935;SDS011;64614;32.062;34.834;2023-11-19T04:06:16;8.27;;;4.25;;
75935;SDS011;64614;32.062;34.834;2023-11-19T04:08:43;7.47;;;4.22;;
75935;SDS011;64614;32.062;34.834;2023-11-19T04:30:20;11.60;;;5.50;;
75935;SDS011;64614;32.062;34.834;2023-11-19T04:32:46;12.27;;;5.72;;
75935;SDS011;64614;32.062;34.834;2023-11-19T04:35:14;12.48;;;6.30;;
75935;SDS011;64614;32.062;34.834;2023-11-19T04:40:39;9.45;;;5.80;;
75935;SDS011;64614;32.062;34.834;2023-11-19T04:43:05;11.88;;;6.40;;
75935;SDS011;64614;32.062;34.834;2023-11-19T04:45:32;13.38;;;6.20;;
75935;SDS011;64614;32.062;34.834;2023-11-19T04:50:35;9.50;;;6.00;;
75935;SDS011;64614;32.062;34.834;2023-11-19T04:55:36;9.60;;;5.53;;
75935;SDS011;64614;32.062;34.834;2023-11-19T04:58:01;12.10;;;5.63;;
75935;SDS011;64614;32.062;34.834;2023-11-19T05:00:28;9.48;;;5.50;;
75935;SDS011;64614;32.062;34.834;2023-11-19T05:06:07;10.98;;;5.50;;
75935;SDS011;64614;32.062;34.834;2023-11-19T05:11:24;12.57;;;5.60;;
75935;SDS011;64614;32.062;34.834;2023-11-19T05:13:49;9.63;;;5.47;;
75935;SDS011;64614;32.062;34.834;2023-11-19T05:16:15;10.88;;;4.95;;
75935;SDS011;64614;32.062;34.834;2023-11-19T05:18:45;8.98;;;5.10;;
75935;SDS011;64614;32.062;34.834;2023-11-19T05:21:15;10.23;;;5.18;;
75935;SDS011;64614;32.062;34.834;2023-11-19T05:23:42;10.90;;;5.07;;
75935;SDS011;64614;32.062;34.834;2023-11-19T05:26:08;10.15;;;5.15;;
75935;SDS011;64614;32.062;34.834;2023-11-19T05:28:37;9.23;;;4.53;;
75935;SDS011;64614;32.062;34.834;2023-11-19T05:31:09;11.70;;;5.50;;
75935;SDS011;64614;32.062;34.834;2023-11-19T05:35:59;11.38;;;5.25;;
75935;SDS011;64614;32.062;34.834;2023-11-19T05:41:02;9.93;;;4.72;;
75935;SDS011;64614;32.062;34.834;2023-11-19T05:46:21;9.40;;;5.20;;
75935;SDS011;64614;32.062;34.834;2023-11-19T05:48:48;13.13;;;5.43;;
75935;SDS011;64614;32.062;34.834;2023-11-19T05:51:14;8.98;;;4.75;;
75935;SDS011;64614;32.062;34.834;2023-11-19T05:53:42;10.25;;;4.32;;
75935;SDS011;64614;32.062;34.834;2023-11-19T05:56:08;9.80;;;4.72;;
75935;SDS011;64614;32.062;34.834;2023-11-19T05:58:34;10.02;;;4.65;;
75935;SDS011;64614;32.062;34.834;2023-11-19T06:01:02;8.57;;;4.65;;
75935;SDS011;64614;32.062;34.834;2023-11-19T06:03:32;9.05;;;4.93;;
75935;SDS011;64614;32.062;34.834;2023-11-19T06:05:59;10.27;;;4.53;;
75935;SDS011;64614;32.062;34.834;2023-11-19T06:08:24;9.13;;;5.00;;
75935;SDS011;64614;32.062;34.834;2023-11-19T06:10:52;9.30;;;4.47;;
75935;SDS011;64614;32.062;34.834;2023-11-19T06:13:17;10.57;;;4.85;;
75935;SDS011;64614;32.062;34.834;2023-11-19T06:15:45;10.85;;;5.30;;
75935;SDS011;64614;32.062;34.834;2023-11-19T06:18:12;9.23;;;4.80;;
75935;SDS011;64614;32.062;34.834;2023-11-19T06:20:38;11.15;;;5.03;;
75935;SDS011;64614;32.062;34.834;2023-11-19T06:23:04;8.52;;;4.65;;
75935;SDS011;64614;32.062;34.834;2023-11-19T06:25:30;11.07;;;4.60;;
75935;SDS011;64614;32.062;34.834;2023-11-19T06:27:56;10.88;;;4.97;;
75935;SDS011;64614;32.062;34.834;2023-11-19T06:32:53;9.90;;;5.10;;
75935;SDS011;64614;32.062;34.834;2023-11-19T06:35:18;12.25;;;5.53;;
75935;SDS011;64614;32.062;34.834;2023-11-19T06:37:44;12.43;;;5.35;;
75935;SDS011;64614;32.062;34.834;2023-11-19T06:40:10;9.32;;;4.95;;
75935;SDS011;64614;32.062;34.834;2023-11-19T06:42:37;11.15;;;5.15;;
75935;SDS011;64614;32.062;34.834;2023-11-19T06:45:03;11.75;;;5.55;;
75935;SDS011;64614;32.062;34.834;2023-11-19T06:47:31;10.57;;;5.43;;
75935;SDS011;64614;32.062;34.834;2023-11-19T06:50:00;9.70;;;4.95;;
75935;SDS011;64614;32.062;34.834;2023-11-19T06:52:30;10.07;;;4.40;;
75935;SDS011;64614;32.062;34.834;2023-11-19T06:54:57;9.85;;;4.22;;
75935;SDS011;64614;32.062;34.834;2023-11-19T06:57:22;10.90;;;4.32;;
75935;SDS011;64614;32.062;34.834;2023-11-19T06:59:49;10.85;;;4.03;;
75935;SDS011;64614;32.062;34.834;2023-11-19T07:02:14;11.40;;;4.22;;
75935;SDS011;64614;32.062;34.834;2023-11-19T07:04:41;9.80;;;3.63;;
75935;SDS011;64614;32.062;34.834;2023-11-19T07:07:07;8.38;;;3.20;;
75935;SDS011;64614;32.062;34.834;2023-11-19T07:09:33;7.65;;;2.95;;
75935;SDS011;64614;32.062;34.834;2023-11-19T07:11:58;10.82;;;3.10;;
75935;SDS011;64614;32.062;34.834;2023-11-19T07:14:26;9.40;;;3.25;;
75935;SDS011;64614;32.062;34.834;2023-11-19T07:16:52;8.07;;;3.03;;
75935;SDS011;64614;32.062;34.834;2023-11-19T07:19:18;8.55;;;3.00;;
75935;SDS011;64614;32.062;34.834;2023-11-19T07:21:44;8.52;;;2.70;;
75935;SDS011;64614;32.062;34.834;2023-11-19T07:24:10;9.40;;;2.88;;
75935;SDS011;64614;32.062;34.834;2023-11-19T07:29:13;7.50;;;2.90;;
75935;SDS011;64614;32.062;34.834;2023-11-19T07:31:42;6.43;;;2.47;;
75935;SDS011;64614;32.062;34.834;2023-11-19T07:47:07;6.55;;;2.03;;
75935;SDS011;64614;32.062;34.834;2023-11-19T07:55:19;5.60;;;2.00;;
75935;SDS011;64614;32.062;34.834;2023-11-19T07:57:45;5.82;;;1.90;;
75935;SDS011;64614;32.062;34.834;2023-11-19T08:00:14;5.40;;;1.90;;
75935;SDS011;64614;32.062;34.834;2023-11-19T08:02:41;6.00;;;1.77;;
75935;SDS011;64614;32.062;34.834;2023-11-19T08:10:40;6.85;;;1.80;;
75935;SDS011;64614;32.062;34.834;2023-11-19T08:15:41;4.15;;;1.70;;
75935;SDS011;64614;32.062;34.834;2023-11-19T08:18:08;5.53;;;1.80;;
75935;SDS011;64614;32.062;34.834;2023-11-19T08:20:34;5.93;;;1.70;;
75935;SDS011;64614;32.062;34.834;2023-11-19T08:28:10;8.35;;;1.90;;
75935;SDS011;64614;32.062;34.834;2023-11-19T08:30:36;9.48;;;2.05;;
75935;SDS011;64614;32.062;34.834;2023-11-19T08:33:03;7.38;;;1.90;;
75935;SDS011;64614;32.062;34.834;2023-11-19T08:38:06;9.55;;;2.22;;
75935;SDS011;64614;32.062;34.834;2023-11-19T08:43:03;6.88;;;2.00;;
75935;SDS011;64614;32.062;34.834;2023-11-19T08:45:28;8.20;;;2.00;;
75935;SDS011;64614;32.062;34.834;2023-11-19T08:50:31;7.05;;;1.83;;
75935;SDS011;64614;32.062;34.834;2023-11-19T08:52:57;6.38;;;1.83;;
75935;SDS011;64614;32.062;34.834;2023-11-19T08:55:25;7.85;;;1.88;;
75935;SDS011;64614;32.062;34.834;2023-11-19T08:57:52;8.13;;;1.95;;
75935;SDS011;64614;32.062;34.834;2023-11-19T09:00:17;6.97;;;2.00;;
75935;SDS011;64614;32.062;34.834;2023-11-19T09:02:48;8.52;;;2.00;;
75935;SDS011;64614;32.062;34.834;2023-11-19T09:05:14;7.90;;;2.15;;
75935;SDS011;64614;32.062;34.834;2023-11-19T09:07:39;8.07;;;1.80;;
75935;SDS011;64614;32.062;34.834;2023-11-19T09:15:15;8.30;;;1.80;;
75935;SDS011;64614;32.062;34.834;2023-11-19T09:17:42;7.97;;;1.90;;
75935;SDS011;64614;32.062;34.834;2023-11-19T09:20:10;6.63;;;1.83;;
75935;SDS011;64614;32.062;34.834;2023-11-19T09:22:39;7.15;;;1.83;;
75935;SDS011;64614;32.062;34.834;2023-11-19T09:25:05;5.25;;;1.50;;
75935;SDS011;64614;32.062;34.834;2023-11-19T09:27:31;6.38;;;1.80;;
75935;SDS011;64614;32.062;34.834;2023-11-19T09:29:58;6.63;;;1.75;;
75935;SDS011;64614;32.062;34.834;2023-11-19T09:35:11;6.75;;;1.50;;
75935;SDS011;64614;32.062;34.834;2023-11-19T09:37:38;6.63;;;1.58;;
75935;SDS011;64614;32.062;34.834;2023-11-19T09:49:08;6.43;;;1.70;;
75935;SDS011;64614;32.062;34.834;2023-11-19T09:51:37;5.57;;;1.55;;
75935;SDS011;64614;32.062;34.834;2023-11-19T09:54:04;6.00;;;1.70;;
75935;SDS011;64614;32.062;34.834;2023-11-19T09:56:30;5.85;;;1.70;;
75935;SDS011;64614;32.062;34.834;2023-11-19T10:01:38;8.07;;;1.83;;
75935;SDS011;64614;32.062;34.834;2023-11-19T10:06:41;9.27;;;2.05;;
75935;SDS011;64614;32.062;34.834;2023-11-19T10:11:37;7.07;;;1.92;;
75935;SDS011;64614;32.062;34.834;2023-11-19T10:14:03;7.78;;;1.90;;
75935;SDS011;64614;32.062;34.834;2023-11-19T10:16:29;7.07;;;2.17;;
75935;SDS011;64614;32.062;34.834;2023-11-19T10:18:56;7.07;;;2.17;;
75935;SDS011;64614;32.062;34.834;2023-11-19T10:21:22;7.82;;;2.05;;
75935;SDS011;64614;32.062;34.834;2023-11-19T10:23:50;7.97;;;1.90;;
75935;SDS011;64614;32.062;34.834;2023-11-19T10:26:18;6.90;;;1.90;;
75935;SDS011;64614;32.062;34.834;2023-11-19T10:28:48;7.25;;;1.83;;
75935;SDS011;64614;32.062;34.834;2023-11-19T10:31:15;6.68;;;1.92;;
75935;SDS011;64614;32.062;34.834;2023-11-19T10:33:43;6.68;;;1.80;;
75935;SDS011;64614;32.062;34.834;2023-11-19T10:36:10;8.52;;;1.80;;
75935;SDS011;64614;32.062;34.834;2023-11-19T10:38:40;6.50;;;1.52;;
75935;SDS011;64614;32.062;34.834;2023-11-19T10:41:26;6.57;;;2.20;;
75935;SDS011;64614;32.062;34.834;2023-11-19T10:43:52;7.72;;;1.92;;
75935;SDS011;64614;32.062;34.834;2023-11-19T10:54:02;6.47;;;1.70;;
75935;SDS011;64614;32.062;34.834;2023-11-19T10:56:32;6.75;;;1.60;;
75935;SDS011;64614;32.062;34.834;2023-11-19T10:58:59;4.30;;;1.60;;
75935;SDS011;64614;32.062;34.834;2023-11-19T11:01:53;7.13;;;1.60;;
75935;SDS011;64614;32.062;34.834;2023-11-19T11:04:22;5.28;;;1.30;;
75935;SDS011;64614;32.062;34.834;2023-11-19T11:06:53;5.30;;;1.60;;
75935;SDS011;64614;32.062;34.834;2023-11-19T11:09:20;6.75;;;1.65;;
75935;SDS011;64614;32.062;34.834;2023-11-19T11:11:48;3.85;;;1.35;;
75935;SDS011;64614;32.062;34.834;2023-11-19T11:16:53;4.10;;;1.50;;
75935;SDS011;64614;32.062;34.834;2023-11-19T11:19:33;4.10;;;1.35;;
75935;SDS011;64614;32.062;34.834;2023-11-19T11:21:59;4.30;;;1.20;;
75935;SDS011;64614;32.062;34.834;2023-11-19T11:35:27;5.22;;;1.50;;
75935;SDS011;64614;32.062;34.834;2023-11-19T11:38:06;5.35;;;1.52;;
75935;SDS011;64614;32.062;34.834;2023-11-19T11:40:35;2.80;;;1.10;;
75935;SDS011;64614;32.062;34.834;2023-11-19T11:43:01;4.03;;;1.42;;
75935;SDS011;64614;32.062;34.834;2023-11-19T11:58:20;3.33;;;1.15;;
75935;SDS011;64614;32.062;34.834;2023-11-19T12:00:47;2.85;;;1.15;;
75935;SDS011;64614;32.062;34.834;2023-11-19T12:03:14;4.07;;;1.30;;
75935;SDS011;64614;32.062;34.834;2023-11-19T12:08:16;4.88;;;1.30;;
75935;SDS011;64614;32.062;34.834;2023-11-19T12:10:49;4.43;;;1.40;;
75935;SDS011;64614;32.062;34.834;2023-11-19T12:13:17;3.58;;;1.20;;
75935;SDS011;64614;32.062;34.834;2023-11-19T12:18:28;3.70;;;1.15;;
75935;SDS011;64614;32.062;34.834;2023-11-19T12:21:05;2.28;;;0.98;;
75935;SDS011;64614;32.062;34.834;2023-11-19T12:23:32;4.68;;;1.20;;
75935;SDS011;64614;32.062;34.834;2023-11-19T12:25:59;5.40;;;1.20;;
75935;SDS011;64614;32.062;34.834;2023-11-19T12:28:26;3.55;;;1.23;;
75935;SDS011;64614;32.062;34.834;2023-11-19T12:30:52;2.60;;;0.98;;
75935;SDS011;64614;32.062;34.834;2023-11-19T13:04:01;3.47;;;1.08;;
75935;SDS011;64614;32.062;34.834;2023-11-19T13:06:45;3.78;;;1.13;;
75935;SDS011;64614;32.062;34.834;2023-11-19T13:09:21;4.75;;;1.00;;
75935;SDS011;64614;32.062;34.834;2023-11-19T13:11:51;4.18;;;1.45;;
75935;SDS011;64614;32.062;34.834;2023-11-19T13:16:53;3.55;;;1.10;;
75935;SDS011;64614;32.062;34.834;2023-11-19T13:19:19;2.72;;;1.10;;
75935;SDS011;64614;32.062;34.834;2023-11-19T13:21:49;3.75;;;1.10;;
75935;SDS011;64614;32.062;34.834;2023-11-19T13:35:32;4.65;;;1.30;;
75935;SDS011;64614;32.062;34.834;2023-11-19T13:37:59;3.28;;;1.50;;
75935;SDS011;64614;32.062;34.834;2023-11-19T13:40:25;5.20;;;1.42;;
75935;SDS011;64614;32.062;34.834;2023-11-19T13:57:42;4.53;;;1.20;;
75935;SDS011;64614;32.062;34.834;2023-11-19T14:02:44;5.60;;;1.23;;
75935;SDS011;64614;32.062;34.834;2023-11-19T14:05:15;2.45;;;1.00;;
75935;SDS011;64614;32.062;34.834;2023-11-19T14:07:44;3.38;;;1.02;;
75935;SDS011;64614;32.062;34.834;2023-11-19T14:15:48;4.43;;;1.20;;
75935;SDS011;64614;32.062;34.834;2023-11-19T14:18:16;5.38;;;1.30;;
75935;SDS011;64614;32.062;34.834;2023-11-19T14:20:42;4.78;;;1.20;;
75935;SDS011;64614;32.062;34.834;2023-11-19T14:23:09;2.03;;;1.00;;
75935;SDS011;64614;32.062;34.834;2023-11-19T14:25:34;3.33;;;1.13;;
75935;SDS011;64614;32.062;34.834;2023-11-19T14:28:02;6.40;;;1.40;;
75935;SDS011;64614;32.062;34.834;2023-11-19T14:30:29;3.60;;;1.20;;
75935;SDS011;64614;32.062;34.834;2023-11-19T14:32:54;3.55;;;1.10;;
75935;SDS011;64614;32.062;34.834;2023-11-19T14:35:20;4.35;;;1.08;;
75935;SDS011;64614;32.062;34.834;2023-11-19T14:37:46;4.30;;;1.30;;
75935;SDS011;64614;32.062;34.834;2023-11-19T14:45:20;4.38;;;1.35;;
75935;SDS011;64614;32.062;34.834;2023-11-19T14:47:47;4.25;;;1.10;;
75935;SDS011;64614;32.062;34.834;2023-11-19T14:50:14;4.57;;;1.30;;
75935;SDS011;64614;32.062;34.834;2023-11-19T14:52:40;3.40;;;1.10;;
75935;SDS011;64614;32.062;34.834;2023-11-19T14:55:06;5.10;;;1.20;;
75935;SDS011;64614;32.062;34.834;2023-11-19T14:57:34;5.30;;;1.38;;
75935;SDS011;64614;32.062;34.834;2023-11-19T15:00:01;4.28;;;1.10;;
75935;SDS011;64614;32.062;34.834;2023-11-19T15:02:38;6.35;;;1.30;;
75935;SDS011;64614;32.062;34.834;2023-11-19T15:05:06;7.50;;;1.30;;
75935;SDS011;64614;32.062;34.834;2023-11-19T15:10:11;3.85;;;1.02;;
75935;SDS011;64614;32.062;34.834;2023-11-19T15:15:12;3.63;;;0.95;;
75935;SDS011;64614;32.062;34.834;2023-11-19T15:17:39;4.03;;;1.27;;
75935;SDS011;64614;32.062;34.834;2023-11-19T15:20:06;4.38;;;1.20;;
75935;SDS011;64614;32.062;34.834;2023-11-19T15:22:32;3.58;;;1.00;;
75935;SDS011;64614;32.062;34.834;2023-11-19T15:24:59;4.30;;;1.13;;
75935;SDS011;64614;32.062;34.834;2023-11-19T15:27:26;5.45;;;1.35;;
75935;SDS011;64614;32.062;34.834;2023-11-19T15:29:53;5.13;;;1.00;;
75935;SDS011;64614;32.062;34.834;2023-11-19T15:40:06;2.78;;;0.93;;
75935;SDS011;64614;32.062;34.834;2023-11-19T15:42:37;4.30;;;1.02;;
75935;SDS011;64614;32.062;34.834;2023-11-19T15:45:03;4.35;;;1.00;;
75935;SDS011;64614;32.062;34.834;2023-11-19T15:47:35;3.97;;;1.00;;
75935;SDS011;64614;32.062;34.834;2023-11-19T15:50:03;4.53;;;1.15;;
75935;SDS011;64614;32.062;34.834;2023-11-19T15:55:05;4.13;;;0.93;;
75935;SDS011;64614;32.062;34.834;2023-11-19T15:57:31;6.32;;;1.20;;
75935;SDS011;64614;32.062;34.834;2023-11-19T15:59:57;4.68;;;1.10;;
75935;SDS011;64614;32.062;34.834;2023-11-19T16:04:58;3.92;;;0.98;;
75935;SDS011;64614;32.062;34.834;2023-11-19T16:07:24;4.35;;;1.02;;
75935;SDS011;64614;32.062;34.834;2023-11-19T16:09:50;3.78;;;1.00;;
75935;SDS011;64614;32.062;34.834;2023-11-19T16:12:16;3.72;;;1.00;;
75935;SDS011;64614;32.062;34.834;2023-11-19T16:14:43;3.75;;;0.90;;
75935;SDS011;64614;32.062;34.834;2023-11-19T16:17:12;3.60;;;1.00;;
75935;SDS011;64614;32.062;34.834;2023-11-19T16:22:09;3.22;;;1.10;;
75935;SDS011;64614;32.062;34.834;2023-11-19T16:29:37;2.75;;;1.00;;
75935;SDS011;64614;32.062;34.834;2023-11-19T16:32:07;3.50;;;0.98;;
75935;SDS011;64614;32.062;34.834;2023-11-19T16:34:34;2.75;;;0.90;;
75935;SDS011;64614;32.062;34.834;2023-11-19T16:37:06;2.47;;;0.73;;
75935;SDS011;64614;32.062;34.834;2023-11-19T16:39:32;1.80;;;0.82;;
75935;SDS011;64614;32.062;34.834;2023-11-19T16:41:57;3.70;;;1.10;;
75935;SDS011;64614;32.062;34.834;2023-11-19T16:46:58;2.70;;;0.82;;
75935;SDS011;64614;32.062;34.834;2023-11-19T16:49:24;3.40;;;0.98;;
75935;SDS011;64614;32.062;34.834;2023-11-19T16:51:51;4.30;;;0.95;;
75935;SDS011;64614;32.062;34.834;2023-11-19T16:54:17;1.95;;;1.00;;
75935;SDS011;64614;32.062;34.834;2023-11-19T16:56:44;3.22;;;0.93;;
75935;SDS011;64614;32.062;34.834;2023-11-19T17:01:45;3.10;;;1.00;;
75935;SDS011;64614;32.062;34.834;2023-11-19T17:04:12;2.95;;;0.70;;
75935;SDS011;64614;32.062;34.834;2023-11-19T17:06:40;3.67;;;0.90;;
75935;SDS011;64614;32.062;34.834;2023-11-19T17:09:06;3.42;;;0.98;;
75935;SDS011;64614;32.062;34.834;2023-11-19T17:11:37;3.33;;;1.08;;
75935;SDS011;64614;32.062;34.834;2023-11-19T17:14:10;4.07;;;0.98;;
75935;SDS011;64614;32.062;34.834;2023-11-19T17:19:05;3.05;;;0.82;;
75935;SDS011;64614;32.062;34.834;2023-11-19T17:21:32;2.83;;;1.13;;
75935;SDS011;64614;32.062;34.834;2023-11-19T17:23:58;3.28;;;1.10;;
75935;SDS011;64614;32.062;34.834;2023-11-19T17:26:25;3.72;;;1.08;;
75935;SDS011;64614;32.062;34.834;2023-11-19T17:28:51;5.22;;;1.10;;
75935;SDS011;64614;32.062;34.834;2023-11-19T17:31:17;1.65;;;1.00;;
75935;SDS011;64614;32.062;34.834;2023-11-19T17:33:42;3.10;;;1.00;;
75935;SDS011;64614;32.062;34.834;2023-11-19T17:36:08;4.15;;;1.10;;
75935;SDS011;64614;32.062;34.834;2023-11-19T17:41:05;4.38;;;1.10;;
75935;SDS011;64614;32.062;34.834;2023-11-19T17:43:32;2.70;;;1.15;;
75935;SDS011;64614;32.062;34.834;2023-11-19T17:45:57;2.50;;;1.10;;
75935;SDS011;64614;32.062;34.834;2023-11-19T17:48:26;3.80;;;1.20;;
75935;SDS011;64614;32.062;34.834;2023-11-19T17:50:54;5.18;;;1.30;;
75935;SDS011;64614;32.062;34.834;2023-11-19T17:53:23;4.10;;;1.23;;
75935;SDS011;64614;32.062;34.834;2023-11-19T17:55:51;2.67;;;1.30;;
75935;SDS011;64614;32.062;34.834;2023-11-19T17:58:17;3.17;;;1.10;;
75935;SDS011;64614;32.062;34.834;2023-11-19T18:00:43;4.20;;;1.40;;
75935;SDS011;64614;32.062;34.834;2023-11-19T18:03:10;3.00;;;1.20;;
75935;SDS011;64614;32.062;34.834;2023-11-19T18:05:36;3.42;;;1.17;;
75935;SDS011;64614;32.062;34.834;2023-11-19T18:08:05;3.72;;;1.20;;
75935;SDS011;64614;32.062;34.834;2023-11-19T18:10:33;4.10;;;1.50;;
75935;SDS011;64614;32.062;34.834;2023-11-19T18:12:59;4.95;;;1.20;;
75935;SDS011;64614;32.062;34.834;2023-11-19T18:15:25;4.40;;;1.38;;
75935;SDS011;64614;32.062;34.834;2023-11-19T18:17:51;5.32;;;1.30;;
75935;SDS011;64614;32.062;34.834;2023-11-19T18:20:24;4.65;;;1.40;;
75935;SDS011;64614;32.062;34.834;2023-11-19T18:22:49;5.00;;;1.50;;
75935;SDS011;64614;32.062;34.834;2023-11-19T18:25:15;4.10;;;1.30;;
75935;SDS011;64614;32.062;34.834;2023-11-19T18:27:44;5.80;;;1.33;;
75935;SDS011;64614;32.062;34.834;2023-11-19T18:30:14;3.88;;;1.30;;
75935;SDS011;64614;32.062;34.834;2023-11-19T18:32:41;6.28;;;1.60;;
75935;SDS011;64614;32.062;34.834;2023-11-19T18:35:09;4.63;;;1.30;;
75935;SDS011;64614;32.062;34.834;2023-11-19T18:37:39;4.00;;;1.35;;
75935;SDS011;64614;32.062;34.834;2023-11-19T18:40:08;3.45;;;1.20;;
75935;SDS011;64614;32.062;34.834;2023-11-19T18:45:09;4.80;;;1.20;;
75935;SDS011;64614;32.062;34.834;2023-11-19T18:55:25;5.07;;;1.27;;
75935;SDS011;64614;32.062;34.834;2023-11-19T18:57:51;4.88;;;1.38;;
75935;SDS011;64614;32.062;34.834;2023-11-19T19:00:18;2.60;;;1.13;;
75935;SDS011;64614;32.062;34.834;2023-11-19T19:07:53;4.10;;;1.40;;
75935;SDS011;64614;32.062;34.834;2023-11-19T19:12:56;3.55;;;1.38;;
75935;SDS011;64614;32.062;34.834;2023-11-19T19:15:23;4.55;;;1.27;;
75935;SDS011;64614;32.062;34.834;2023-11-19T19:17:51;3.80;;;1.33;;
75935;SDS011;64614;32.062;34.834;2023-11-19T19:20:17;3.00;;;0.98;;
75935;SDS011;64614;32.062;34.834;2023-11-19T19:22:43;4.47;;;1.20;;
75935;SDS011;64614;32.062;34.834;2023-11-19T19:27:43;4.35;;;1.20;;
75935;SDS011;64614;32.062;34.834;2023-11-19T19:30:11;3.22;;;1.10;;
75935;SDS011;64614;32.062;34.834;2023-11-19T19:32:37;3.58;;;1.00;;
75935;SDS011;64614;32.062;34.834;2023-11-19T19:35:08;4.15;;;1.33;;
75935;SDS011;64614;32.062;34.834;2023-11-19T19:37:34;3.97;;;1.30;;
75935;SDS011;64614;32.062;34.834;2023-11-19T19:42:41;4.22;;;1.55;;
75935;SDS011;64614;32.062;34.834;2023-11-19T19:45:07;5.57;;;1.30;;
75935;SDS011;64614;32.062;34.834;2023-11-19T19:52:37;9.30;;;2.28;;
75935;SDS011;64614;32.062;34.834;2023-11-19T19:55:05;8.95;;;1.85;;
75935;SDS011;64614;32.062;34.834;2023-11-19T19:57:38;14.82;;;2.60;;
75935;SDS011;64614;32.062;34.834;2023-11-19T20:02:52;25.90;;;3.88;;
75935;SDS011;64614;32.062;34.834;2023-11-19T20:05:18;14.00;;;2.65;;
75935;SDS011;64614;32.062;34.834;2023-11-19T20:07:44;11.85;;;2.50;;
75935;SDS011;64614;32.062;34.834;2023-11-19T20:10:12;13.82;;;2.60;;
75935;SDS011;64614;32.062;34.834;2023-11-19T20:12:39;9.45;;;1.98;;
75935;SDS011;64614;32.062;34.834;2023-11-19T20:15:06;11.00;;;1.92;;
75935;SDS011;64614;32.062;34.834;2023-11-19T20:17:35;8.48;;;2.13;;
75935;SDS011;64614;32.062;34.834;2023-11-19T20:22:30;5.75;;;1.63;;
75935;SDS011;64614;32.062;34.834;2023-11-19T20:24:56;7.65;;;1.60;;
75935;SDS011;64614;32.062;34.834;2023-11-19T20:27:25;6.03;;;1.35;;
75935;SDS011;64614;32.062;34.834;2023-11-19T20:29:51;9.40;;;1.60;;
75935;SDS011;64614;32.062;34.834;2023-11-19T20:32:18;4.95;;;1.15;;
75935;SDS011;64614;32.062;34.834;2023-11-19T20:34:44;4.30;;;1.20;;
75935;SDS011;64614;32.062;34.834;2023-11-19T20:37:11;4.72;;;1.50;;
75935;SDS011;64614;32.062;34.834;2023-11-19T20:39:38;5.93;;;1.30;;
75935;SDS011;64614;32.062;34.834;2023-11-19T20:42:06;3.90;;;1.20;;
75935;SDS011;64614;32.062;34.834;2023-11-19T20:44:32;4.50;;;1.27;;
75935;SDS011;64614;32.062;34.834;2023-11-19T20:47:01;6.32;;;1.50;;
75935;SDS011;64614;32.062;34.834;2023-11-19T20:49:29;4.50;;;1.30;;
75935;SDS011;64614;32.062;34.834;2023-11-19T20:51:56;4.10;;;1.10;;
75935;SDS011;64614;32.062;34.834;2023-11-19T20:54:24;5.32;;;1.15;;
75935;SDS011;64614;32.062;34.834;2023-11-19T20:59:25;5.82;;;1.30;;
75935;SDS011;64614;32.062;34.834;2023-11-19T21:01:51;4.07;;;1.30;;
75935;SDS011;64614;32.062;34.834;2023-11-19T21:04:17;5.50;;;1.33;;
75935;SDS011;64614;32.062;34.834;2023-11-19T21:06:43;3.50;;;1.25;;
75935;SDS011;64614;32.062;34.834;2023-11-19T21:20:28;4.20;;;1.27;;
75935;SDS011;64614;32.062;34.834;2023-11-19T21:22:54;3.75;;;1.10;;
75935;SDS011;64614;32.062;34.834;2023-11-19T21:25:21;4.25;;;1.13;;
75935;SDS011;64614;32.062;34.834;2023-11-19T21:27:49;3.17;;;0.90;;
75935;SDS011;64614;32.062;34.834;2023-11-19T21:30:15;4.15;;;1.30;;
75935;SDS011;64614;32.062;34.834;2023-11-19T21:32:44;4.45;;;1.20;;
75935;SDS011;64614;32.062;34.834;2023-11-19T21:35:10;4.18;;;1.20;;
75935;SDS011;64614;32.062;34.834;2023-11-19T21:37:36;3.85;;;1.10;;
75935;SDS011;64614;32.062;34.834;2023-11-19T21:40:03;3.70;;;1.10;;
75935;SDS011;64614;32.062;34.834;2023-11-19T21:42:31;4.13;;;1.20;;
75935;SDS011;64614;32.062;34.834;2023-11-19T21:44:57;4.78;;;1.20;;
75935;SDS011;64614;32.062;34.834;2023-11-19T21:47:24;3.55;;;1.00;;
75935;SDS011;64614;32.062;34.834;2023-11-19T21:49:52;4.57;;;1.00;;
75935;SDS011;64614;32.062;34.834;2023-11-19T21:52:27;3.97;;;1.35;;
75935;SDS011;64614;32.062;34.834;2023-11-19T21:54:54;4.63;;;1.13;;
75935;SDS011;64614;32.062;34.834;2023-11-19T21:57:20;6.38;;;1.50;;
75935;SDS011;64614;32.062;34.834;2023-11-19T21:59:47;4.50;;;1.10;;
75935;SDS011;64614;32.062;34.834;2023-11-19T22:04:48;5.13;;;1.30;;
75935;SDS011;64614;32.062;34.834;2023-11-19T22:07:15;7.60;;;1.30;;
75935;SDS011;64614;32.062;34.834;2023-11-19T22:09:41;4.88;;;1.10;;
75935;SDS011;64614;32.062;34.834;2023-11-19T22:12:08;5.38;;;1.10;;
75935;SDS011;64614;32.062;34.834;2023-11-19T22:14:38;4.05;;;1.10;;
75935;SDS011;64614;32.062;34.834;2023-11-19T22:17:04;4.97;;;1.20;;
75935;SDS011;64614;32.062;34.834;2023-11-19T22:19:29;4.13;;;1.30;;
75935;SDS011;64614;32.062;34.834;2023-11-19T22:21:55;3.67;;;1.10;;
75935;SDS011;64614;32.062;34.834;2023-11-19T22:24:21;6.32;;;1.25;;
75935;SDS011;64614;32.062;34.834;2023-11-19T22:26:49;5.43;;;1.20;;
75935;SDS011;64614;32.062;34.834;2023-11-19T22:29:16;5.55;;;1.13;;
75935;SDS011;64614;32.062;34.834;2023-11-19T22:31:42;4.28;;;1.10;;
75935;SDS011;64614;32.062;34.834;2023-11-19T22:34:07;3.88;;;1.10;;
75935;SDS011;64614;32.062;34.834;2023-11-19T22:36:33;4.20;;;1.25;;
75935;SDS011;64614;32.062;34.834;2023-11-19T22:39:00;3.78;;;1.20;;
75935;SDS011;64614;32.062;34.834;2023-11-19T22:41:27;3.83;;;1.20;;
75935;SDS011;64614;32.062;34.834;2023-11-19T22:43:56;4.43;;;1.27;;
75935;SDS011;64614;32.062;34.834;2023-11-19T22:46:24;7.47;;;1.20;;
75935;SDS011;64614;32.062;34.834;2023-11-19T22:48:51;4.18;;;1.05;;
75935;SDS011;64614;32.062;34.834;2023-11-19T22:51:18;4.65;;;1.30;;
75935;SDS011;64614;32.062;34.834;2023-11-19T22:53:44;3.03;;;1.05;;
75935;SDS011;64614;32.062;34.834;2023-11-19T22:56:13;4.53;;;1.20;;
75935;SDS011;64614;32.062;34.834;2023-11-19T22:58:42;4.93;;;1.42;;
75935;SDS011;64614;32.062;34.834;2023-11-19T23:01:14;5.40;;;1.38;;
75935;SDS011;64614;32.062;34.834;2023-11-19T23:03:47;4.70;;;1.40;;
75935;SDS011;64614;32.062;34.834;2023-11-19T23:06:13;4.25;;;1.10;;
75935;SDS011;64614;32.062;34.834;2023-11-19T23:08:39;5.55;;;1.33;;
75935;SDS011;64614;32.062;34.834;2023-11-19T23:11:10;4.95;;;1.08;;
75935;SDS011;64614;32.062;34.834;2023-11-19T23:13:37;5.50;;;1.40;;
75935;SDS011;64614;32.062;34.834;2023-11-19T23:16:03;5.68;;;1.20;;
75935;SDS011;64614;32.062;34.834;2023-11-19T23:18:29;5.03;;;1.05;;
75935;SDS011;64614;32.062;34.834;2023-11-19T23:20:55;6.78;;;1.60;;
75935;SDS011;64614;32.062;34.834;2023-11-19T23:23:20;5.40;;;1.13;;
75935;SDS011;64614;32.062;34.834;2023-11-19T23:25:47;4.95;;;1.17;;
75935;SDS011;64614;32.062;34.834;2023-11-19T23:28:14;4.03;;;1.05;;
75935;SDS011;64614;32.062;34.834;2023-11-19T23:30:44;4.90;;;1.30;;
75935;SDS011;64614;32.062;34.834;2023-11-19T23:33:16;4.32;;;1.02;;